Time;durP1;ratioP1;P1;durP2;ratioP2;P2;SDS_P1;SDS_P2;PMS_P1;PMS_P2;Temp;Humidity;BMP_temperature;BMP_pressure;BME280_temperature;BME280_humidity;BME280_pressure;Samples;Min_cycle;Max_cycle;Signal;HPM_P1;HPM_P2
2023/01/05 00:01:54;;;;;;;12.58;7.17;;;;;;;0.74;77.96;99645.81;1700115;83;21110;-76
2023/01/05 00:04:22;;;;;;;13.03;8.28;;;;;;;0.70;78.12;99632.12;1728539;82;21090;-74
2023/01/05 00:06:51;;;;;;;9.70;6.85;;;;;;;0.71;78.15;99634.25;1748644;81;21052;-73
2023/01/05 00:09:18;;;;;;;10.70;7.15;;;;;;;0.70;78.29;99620.34;1749746;82;21003;-71
2023/01/05 00:22:52;;;;;;;13.98;7.50;;;;;;;0.69;78.57;99577.31;1718824;82;21496;-72
2023/01/05 00:25:24;;;;;;;11.38;7.53;;;;;;;0.73;78.54;99584.81;1705585;83;21969;-72
2023/01/05 00:27:52;;;;;;;9.90;6.30;;;;;;;0.71;78.46;99573.63;1708498;83;21569;-72
2023/01/05 00:30:21;;;;;;;11.63;6.85;;;;;;;0.68;78.63;99571.73;1706413;83;21041;-73
2023/01/05 00:32:48;;;;;;;12.60;7.30;;;;;;;0.65;78.80;99554.94;1702251;82;21297;-73
2023/01/05 00:35:17;;;;;;;10.25;7.08;;;;;;;0.70;78.77;99533.23;1702167;83;21064;-73
2023/01/05 00:37:44;;;;;;;8.48;6.47;;;;;;;0.68;78.74;99537.27;1703624;83;21880;-76
2023/01/05 00:40:16;;;;;;;10.88;7.58;;;;;;;0.65;78.90;99541.88;1703870;83;21054;-73
2023/01/05 00:42:43;;;;;;;10.55;7.60;;;;;;;0.68;78.93;99550.81;1722802;83;21091;-75
2023/01/05 00:45:12;;;;;;;11.45;6.95;;;;;;;0.67;78.96;99521.20;1735628;82;20999;-74
2023/01/05 00:47:40;;;;;;;9.23;6.45;;;;;;;0.68;78.98;99518.95;1720803;83;21039;-75
2023/01/05 00:50:13;;;;;;;9.13;6.53;;;;;;;0.67;79.12;99515.14;1720386;83;21083;-73
2023/01/05 00:52:42;;;;;;;13.03;7.03;;;;;;;0.71;79.06;99497.80;1741478;82;21082;-73
2023/01/05 00:55:09;;;;;;;12.40;7.20;;;;;;;0.69;79.16;99508.84;1722609;83;21517;-73
2023/01/05 00:57:36;;;;;;;12.68;7.55;;;;;;;0.71;79.23;99493.05;1740529;82;21574;-71
2023/01/05 01:00:06;;;;;;;10.85;6.70;;;;;;;0.70;79.25;99480.95;1750603;82;21039;-73
2023/01/05 01:02:33;;;;;;;10.13;6.65;;;;;;;0.70;79.31;99470.48;1752054;82;21115;-72
2023/01/05 01:05:00;;;;;;;11.63;6.90;;;;;;;0.75;79.24;99448.73;1752218;82;21060;-73
2023/01/05 01:07:27;;;;;;;10.82;7.45;;;;;;;0.76;79.16;99443.40;1751166;82;21028;-73
2023/01/05 01:09:53;;;;;;;10.08;6.90;;;;;;;0.78;79.24;99435.45;1750029;82;21033;-72
2023/01/05 01:12:20;;;;;;;11.43;6.50;;;;;;;0.76;79.52;99436.86;1749861;81;21473;-72
2023/01/05 01:14:47;;;;;;;11.75;8.18;;;;;;;0.79;79.68;99437.10;1748850;81;22256;-73
2023/01/05 01:17:17;;;;;;;13.18;7.40;;;;;;;0.77;79.86;99429.84;1748578;82;21544;-73
2023/01/05 01:19:45;;;;;;;9.75;7.92;;;;;;;0.77;79.78;99429.39;1749993;81;21498;-71
2023/01/05 01:22:12;;;;;;;11.43;6.70;;;;;;;0.81;79.68;99432.59;1752865;81;21033;-71
2023/01/05 01:24:39;;;;;;;10.43;7.28;;;;;;;0.76;79.81;99421.66;1753691;81;21046;-71
2023/01/05 01:27:06;;;;;;;10.82;7.25;;;;;;;0.82;79.78;99405.98;1753065;81;21870;-74
2023/01/05 01:29:33;;;;;;;8.88;7.08;;;;;;;0.79;79.86;99426.64;1724490;83;21082;-73
2023/01/05 01:32:01;;;;;;;10.28;7.15;;;;;;;0.84;79.94;99393.14;1746976;81;20988;-74
2023/01/05 01:34:28;;;;;;;15.63;8.70;;;;;;;0.86;79.89;99382.58;1736527;81;21298;-71
2023/01/05 01:36:55;;;;;;;10.95;8.08;;;;;;;0.89;80.01;99371.87;1757889;81;20975;-71
2023/01/05 01:39:23;;;;;;;11.93;8.13;;;;;;;0.92;79.96;99355.95;1746007;80;21588;-72
2023/01/05 01:41:52;;;;;;;10.90;7.70;;;;;;;0.89;80.26;99353.56;1756642;81;20985;-72
2023/01/05 01:44:54;;;;;;;10.65;7.85;;;;;;;0.90;80.46;99352.14;1754825;80;21084;-74
2023/01/05 01:47:51;;;;;;;10.95;8.63;;;;;;;0.94;80.33;99342.28;1691543;84;20997;-74
2023/01/05 01:50:30;;;;;;;14.05;8.88;;;;;;;1.04;80.04;99339.80;1726111;83;21521;-74
2023/01/05 01:53:08;;;;;;;9.95;8.50;;;;;;;1.01;80.13;99325.66;1700763;84;21545;-71
2023/01/05 01:55:36;;;;;;;11.48;8.73;;;;;;;0.99;80.18;99325.78;1725400;81;21067;-71
2023/01/05 01:58:05;;;;;;;14.38;8.90;;;;;;;1.01;80.31;99304.73;1723947;83;21086;-73
2023/01/05 02:00:31;;;;;;;12.47;8.53;;;;;;;0.97;80.53;99301.52;1723787;83;21162;-72
2023/01/05 02:02:57;;;;;;;14.10;9.10;;;;;;;1.00;80.54;99281.65;1724793;82;21067;-72
2023/01/05 02:05:29;;;;;;;11.65;8.08;;;;;;;1.03;80.52;99269.66;1728345;81;21063;-72
2023/01/05 02:07:56;;;;;;;13.08;8.65;;;;;;;1.02;80.62;99260.61;1727866;83;20964;-74
2023/01/05 02:10:58;;;;;;;12.65;8.50;;;;;;;1.08;80.62;99255.75;1724056;82;21317;-74
2023/01/05 02:13:55;;;;;;;10.30;8.45;;;;;;;1.12;80.43;99244.09;1720651;81;21083;-70
2023/01/05 02:17:09;;;;;;;11.43;8.13;;;;;;;1.05;80.52;99231.13;1728844;82;21455;-73
2023/01/05 02:19:56;;;;;;;12.47;9.13;;;;;;;1.04;80.72;99230.75;1710596;83;21164;-68
2023/01/05 02:23:02;;;;;;;15.20;9.70;;;;;;;1.05;80.75;99209.37;1688897;82;21037;-70
2023/01/05 02:25:52;;;;;;;14.68;10.23;;;;;;;1.12;80.62;99202.23;1703727;83;21035;-70
2023/01/05 02:28:34;;;;;;;10.18;8.15;;;;;;;1.09;80.60;99211.61;1672052;85;21032;-70
2023/01/05 02:31:09;;;;;;;12.75;9.70;;;;;;;1.06;80.92;99211.02;1703259;84;21093;-73
2023/01/05 02:34:15;;;;;;;11.45;8.48;;;;;;;1.05;80.94;99188.45;1694855;82;21046;-70
2023/01/05 02:37:16;;;;;;;14.43;9.50;;;;;;;1.08;80.99;99203.42;1698671;83;26739;-70
2023/01/05 02:42:39;;;;;;;16.90;10.27;;;;;;;1.23;80.76;99181.73;1771320;79;22509;-70
2023/01/05 02:45:08;;;;;;;15.77;9.67;;;;;;;1.16;80.86;99189.74;1772994;78;20878;-71
2023/01/05 02:47:42;;;;;;;11.63;8.70;;;;;;;1.16;80.87;99183.20;1756745;79;21141;-71
2023/01/05 02:50:20;;;;;;;11.78;8.63;;;;;;;1.25;80.66;99181.14;1761334;81;20949;-72
2023/01/05 02:53:21;;;;;;;14.85;9.03;;;;;;;1.26;80.60;99176.76;1798270;78;20929;-71
2023/01/05 02:55:52;;;;;;;14.80;9.00;;;;;;;1.22;80.70;99173.55;1789303;78;21462;-73
2023/01/05 02:58:24;;;;;;;13.13;9.73;;;;;;;1.28;80.78;99153.91;1750225;81;21010;-75
2023/01/05 03:00:59;;;;;;;16.62;9.28;;;;;;;1.33;80.66;99146.05;1792393;80;21223;-73
2023/01/05 03:03:29;;;;;;;;;;;;;;;1.29;80.65;99145.09;1758718;78;20923;-73
2023/01/05 03:06:00;;;;;;;12.07;8.08;;;;;;;1.22;80.93;99132.14;1755894;78;20127;-75
2023/01/05 03:08:29;;;;;;;13.20;7.90;;;;;;;1.26;81.10;99117.87;1790851;77;21017;-72
2023/01/05 03:13:59;;;;;;;9.57;8.23;;;;;;;1.32;81.17;99104.29;1756771;78;21151;-74
2023/01/05 03:16:31;;;;;;;12.68;8.83;;;;;;;1.22;81.99;99098.98;1800734;78;21749;-72
2023/01/05 03:35:41;;;;;;;15.83;9.95;;;;;;;1.07;85.75;99050.02;1786353;77;20882;-74
2023/01/05 03:38:31;;;;;;;12.13;8.48;;;;;;;0.96;86.96;99045.64;1762824;79;20966;-73
2023/01/05 03:41:00;;;;;;;12.82;9.10;;;;;;;1.02;87.34;99039.58;1774194;80;21072;-70
2023/01/05 03:43:28;;;;;;;16.20;10.48;;;;;;;0.96;87.99;99024.72;1757923;80;21001;-72
2023/01/05 03:45:56;;;;;;;12.55;10.05;;;;;;;0.86;89.04;99010.73;1783353;80;21074;-72
2023/01/05 03:48:25;;;;;;;11.40;9.03;;;;;;;0.83;89.47;98999.23;1783959;80;21008;-73
2023/01/05 03:50:52;;;;;;;13.68;9.15;;;;;;;0.88;89.60;98997.06;1783112;80;21011;-71
2023/01/05 03:53:19;;;;;;;14.00;9.35;;;;;;;0.83;90.08;98992.70;1775301;80;21086;-72
2023/01/05 03:55:46;;;;;;;14.70;9.50;;;;;;;0.81;90.51;98980.69;1715670;82;21031;-72
2023/01/05 03:58:15;;;;;;;13.48;9.98;;;;;;;0.89;90.56;98976.96;1760545;79;21541;-71
2023/01/05 04:00:43;;;;;;;14.60;9.53;;;;;;;0.89;90.78;98982.19;1743453;81;21611;-73
2023/01/05 04:03:10;;;;;;;11.30;9.35;;;;;;;0.83;91.39;98974.39;1740533;81;20966;-70
2023/01/05 04:05:38;;;;;;;12.25;9.05;;;;;;;0.88;91.79;98951.78;1763912;80;21323;-68
2023/01/05 04:08:05;;;;;;;14.78;9.70;;;;;;;0.94;91.86;98962.55;1767431;79;21007;-70
2023/01/05 04:10:33;;;;;;;13.98;9.75;;;;;;;0.90;92.14;98969.48;1751150;79;21108;-71
2023/01/05 04:13:00;;;;;;;13.22;9.75;;;;;;;0.87;92.41;98927.42;1744121;81;20985;-71
2023/01/05 04:15:27;;;;;;;13.45;9.93;;;;;;;0.94;92.44;98923.33;1730950;81;21453;-69
2023/01/05 04:17:54;;;;;;;12.03;8.58;;;;;;;0.97;92.59;98927.49;1746630;81;21076;-71
2023/01/05 04:20:21;;;;;;;14.38;9.10;;;;;;;0.88;93.25;98917.30;1739158;81;21032;-71
2023/01/05 04:22:49;;;;;;;11.78;8.83;;;;;;;0.92;93.21;98923.11;1757912;81;21182;-68
2023/01/05 04:25:18;;;;;;;12.45;9.60;;;;;;;0.99;93.22;98894.19;1741521;81;21008;-72
2023/01/05 04:27:45;;;;;;;12.63;9.28;;;;;;;0.93;93.70;98887.69;1757008;81;21041;-74
2023/01/05 04:30:13;;;;;;;11.80;8.78;;;;;;;0.87;94.34;98891.27;1725632;81;21161;-74
2023/01/05 04:32:40;;;;;;;13.78;9.18;;;;;;;0.91;94.65;98859.52;1751904;81;20941;-75
2023/01/05 04:35:08;;;;;;;15.53;9.90;;;;;;;0.94;94.80;98867.09;1748972;81;21037;-75
2023/01/05 04:37:37;;;;;;;11.22;9.18;;;;;;;0.90;95.25;98859.16;1770251;79;21167;-75
2023/01/05 04:40:06;;;;;;;12.18;9.18;;;;;;;0.87;96.00;98842.44;1765721;77;21090;-75
2023/01/05 04:42:36;;;;;;;15.25;10.32;;;;;;;0.93;95.86;98852.38;1741851;81;21764;-74
2023/01/05 04:45:03;;;;;;;13.60;8.90;;;;;;;0.90;96.06;98830.39;1764715;81;21036;-73
2023/01/05 04:47:31;;;;;;;13.20;8.55;;;;;;;0.87;96.99;98847.67;1749814;81;21132;-72
2023/01/05 04:49:59;;;;;;;15.30;10.58;;;;;;;0.98;96.84;98833.67;1764494;81;21025;-72
2023/01/05 04:52:26;;;;;;;14.43;9.60;;;;;;;0.97;97.04;98828.93;1767963;81;20989;-71
2023/01/05 04:54:55;;;;;;;14.20;10.65;;;;;;;0.96;97.24;98819.41;1739513;81;21102;-71
2023/01/05 04:57:22;;;;;;;9.85;8.40;;;;;;;1.04;97.61;98812.22;1759489;81;21528;-73
2023/01/05 04:59:54;;;;;;;13.30;10.18;;;;;;;1.08;97.67;98807.56;1770039;81;21580;-71
2023/01/05 05:02:23;;;;;;;14.45;10.70;;;;;;;1.06;98.68;98805.56;1762435;81;21095;-73
2023/01/05 05:04:49;;;;;;;12.50;9.50;;;;;;;1.05;99.65;98823.05;1760612;81;21032;-74
2023/01/05 05:07:16;;;;;;;14.13;8.93;;;;;;;1.15;99.63;98795.14;1757254;81;21236;-75
2023/01/05 05:09:44;;;;;;;14.87;10.60;;;;;;;1.18;99.84;98792.27;1757367;77;20986;-72
2023/01/05 05:12:10;;;;;;;12.93;10.98;;;;;;;1.22;100.00;98780.22;1752912;81;21014;-77
2023/01/05 05:14:38;;;;;;;14.98;10.38;;;;;;;1.21;100.00;98785.12;1757819;78;21528;-77
2023/01/05 05:17:05;;;;;;;12.40;10.05;;;;;;;1.28;100.00;98764.84;1756718;81;21032;-75
2023/01/05 05:19:32;;;;;;;13.25;10.40;;;;;;;1.34;100.00;98772.15;1760957;81;21050;-74
2023/01/05 05:21:59;;;;;;;13.05;10.10;;;;;;;1.35;100.00;98758.11;1743330;81;21041;-75
2023/01/05 05:24:26;;;;;;;18.23;11.35;;;;;;;1.37;100.00;98756.19;1757781;81;21048;-75
2023/01/05 05:26:56;;;;;;;16.97;11.12;;;;;;;1.33;100.00;98768.34;1739775;81;21017;-74
2023/01/05 05:29:23;;;;;;;15.75;10.90;;;;;;;1.39;100.00;98765.19;1740664;81;21576;-75
2023/01/05 05:31:51;;;;;;;17.05;11.33;;;;;;;1.42;100.00;98761.50;1744956;81;21625;-74
2023/01/05 05:34:17;;;;;;;15.30;11.05;;;;;;;1.45;100.00;98732.42;1740755;81;21107;-75
2023/01/05 05:36:44;;;;;;;15.15;12.05;;;;;;;1.50;100.00;98723.70;1760284;81;21076;-74
2023/01/05 05:39:14;;;;;;;15.10;11.63;;;;;;;1.50;100.00;98713.23;1756065;77;21164;-75
2023/01/05 05:41:41;;;;;;;15.35;11.28;;;;;;;1.49;100.00;98731.22;1766596;80;21099;-75
2023/01/05 05:44:07;;;;;;;13.05;10.53;;;;;;;1.56;100.00;98719.22;1769114;81;21079;-73
2023/01/05 05:46:34;;;;;;;18.65;12.10;;;;;;;1.60;100.00;98717.16;1746540;81;21208;-75
2023/01/05 05:49:01;;;;;;;13.20;9.28;;;;;;;1.59;100.00;98695.41;1740570;81;21094;-74
2023/01/05 05:51:27;;;;;;;14.25;10.53;;;;;;;1.63;100.00;98711.18;1744128;81;21037;-73
2023/01/05 05:53:54;;;;;;;15.80;11.38;;;;;;;1.70;100.00;98694.42;1766615;81;21052;-74
2023/01/05 05:56:20;;;;;;;13.62;11.45;;;;;;;1.74;100.00;98700.58;1744815;81;21488;-73
2023/01/05 05:58:47;;;;;;;14.13;10.45;;;;;;;1.78;100.00;98676.27;1743267;81;20973;-73
2023/01/05 06:01:14;;;;;;;14.43;10.70;;;;;;;1.77;100.00;98679.34;1740381;81;21509;-73
2023/01/05 06:03:41;;;;;;;18.73;10.78;;;;;;;1.83;100.00;98682.37;1744167;81;21595;-72
2023/01/05 06:06:07;;;;;;;17.23;12.35;;;;;;;1.83;100.00;98674.52;1768412;81;21094;-74
2023/01/05 06:08:34;;;;;;;14.38;11.93;;;;;;;1.87;100.00;98651.02;1735890;80;21606;-73
2023/01/05 06:11:00;;;;;;;14.35;11.63;;;;;;;1.87;100.00;98655.77;1744837;80;21503;-75
2023/01/05 06:13:30;;;;;;;16.77;11.57;;;;;;;1.90;100.00;98641.58;1743327;81;20930;-75
2023/01/05 06:15:57;;;;;;;15.88;11.48;;;;;;;1.93;100.00;98637.36;1772314;80;20990;-76
2023/01/05 06:18:27;;;;;;;17.32;12.98;;;;;;;1.94;100.00;98643.77;1771072;81;20957;-74
2023/01/05 06:20:53;;;;;;;15.45;11.00;;;;;;;1.95;100.00;98640.66;1747762;81;21772;-76
2023/01/05 06:23:20;;;;;;;17.05;12.37;;;;;;;2.02;100.00;98631.28;1713410;82;21536;-75
2023/01/05 06:25:47;;;;;;;17.17;12.35;;;;;;;2.07;100.00;98647.91;1770347;81;21057;-76
2023/01/05 06:28:17;;;;;;;17.92;13.58;;;;;;;2.09;100.00;98639.42;1749152;81;21061;-72
2023/01/05 06:30:45;;;;;;;20.40;11.75;;;;;;;2.09;100.00;98630.25;1764165;81;21072;-76
2023/01/05 06:33:11;;;;;;;16.32;11.90;;;;;;;2.10;100.00;98654.98;1750232;81;21105;-75
2023/01/05 06:35:38;;;;;;;18.35;12.00;;;;;;;2.18;100.00;98625.94;1752548;81;20996;-74
2023/01/05 06:38:05;;;;;;;15.93;11.75;;;;;;;2.18;100.00;98624.14;1749736;81;21072;-75
2023/01/05 06:40:32;;;;;;;15.88;11.28;;;;;;;2.22;100.00;98624.69;1741737;81;21120;-75
2023/01/05 06:42:59;;;;;;;18.27;12.80;;;;;;;2.24;100.00;98597.39;1755329;80;20968;-74
2023/01/05 06:45:26;;;;;;;16.17;10.75;;;;;;;2.26;100.00;98632.60;1753547;81;21180;-74
2023/01/05 06:47:53;;;;;;;13.80;10.03;;;;;;;2.29;100.00;98631.02;1755076;81;21076;-73
2023/01/05 06:50:21;;;;;;;17.85;12.93;;;;;;;2.30;100.00;98613.84;1745742;81;21073;-72
2023/01/05 06:52:48;;;;;;;17.52;12.78;;;;;;;2.35;100.00;98622.58;1769844;81;21054;-72
2023/01/05 06:55:16;;;;;;;18.77;12.82;;;;;;;2.37;100.00;98602.30;1735444;81;21072;-75
2023/01/05 06:57:43;;;;;;;25.00;20.00;;;;;;;2.37;100.00;98585.25;1742713;81;21811;-75
2023/01/05 07:00:15;;;;;;;18.80;12.70;;;;;;;2.41;100.00;98576.13;1750501;81;21556;-75
2023/01/05 07:02:43;;;;;;;16.62;12.15;;;;;;;2.43;100.00;98588.60;1753128;81;21667;-76
2023/01/05 07:05:09;;;;;;;17.82;15.18;;;;;;;2.45;100.00;98601.08;1751809;81;21028;-75
2023/01/05 07:07:36;;;;;;;23.80;17.02;;;;;;;2.45;100.00;98584.04;1754022;81;21072;-75
2023/01/05 07:10:04;;;;;;;17.30;12.35;;;;;;;2.48;100.00;98591.63;1742022;81;21215;-73
2023/01/05 07:12:31;;;;;;;17.73;11.55;;;;;;;2.50;100.00;98603.29;1750437;81;21005;-73
2023/01/05 07:14:58;;;;;;;14.85;11.90;;;;;;;2.49;100.00;98591.98;1763358;81;20989;-75
2023/01/05 07:17:25;;;;;;;17.92;13.10;;;;;;;2.52;100.00;98566.77;1744998;81;21104;-75
2023/01/05 07:19:52;;;;;;;20.15;15.23;;;;;;;2.58;100.00;98539.64;1741495;81;21064;-74
2023/01/05 07:22:18;;;;;;;25.00;16.23;;;;;;;2.58;100.00;98539.64;1749539;81;21632;-73
2023/01/05 07:24:46;;;;;;;23.42;15.28;;;;;;;2.57;100.00;98536.20;1745400;81;21035;-74
2023/01/05 07:27:13;;;;;;;28.00;15.80;;;;;;;2.61;100.00;98526.22;1756591;81;21056;-75
2023/01/05 07:29:39;;;;;;;24.00;14.65;;;;;;;2.65;100.00;98535.47;1742515;81;21053;-74
2023/01/05 07:32:07;;;;;;;17.05;12.43;;;;;;;2.67;100.00;98547.94;1729917;81;20989;-74
2023/01/05 07:34:34;;;;;;;16.73;12.30;;;;;;;2.67;100.00;98535.64;1756300;81;21248;-74
2023/01/05 07:37:00;;;;;;;17.30;11.97;;;;;;;2.71;100.00;98516.52;1747996;81;21258;-73
2023/01/05 07:39:27;;;;;;;20.80;12.47;;;;;;;2.74;100.00;98506.55;1766314;81;21052;-74
2023/01/05 07:41:54;;;;;;;16.02;12.65;;;;;;;2.80;100.00;98516.94;1748212;81;21595;-74
2023/01/05 07:44:22;;;;;;;16.00;11.03;;;;;;;2.83;100.00;98510.56;1771853;80;21048;-73
2023/01/05 07:46:50;;;;;;;16.62;11.55;;;;;;;2.85;100.00;98535.66;1758531;81;21204;-74
2023/01/05 07:49:16;;;;;;;14.90;11.55;;;;;;;2.91;100.00;98517.19;1741567;81;21093;-73
2023/01/05 07:51:43;;;;;;;13.80;11.08;;;;;;;2.94;100.00;98505.10;1742904;81;21088;-74
2023/01/05 07:54:09;;;;;;;16.87;12.00;;;;;;;3.01;100.00;98492.20;1722695;82;21030;-74
2023/01/05 07:56:36;;;;;;;15.23;10.10;;;;;;;3.05;100.00;98509.28;1721348;82;21107;-73
2023/01/05 07:59:02;;;;;;;14.40;10.40;;;;;;;3.09;100.00;98494.42;1764040;81;21689;-73
2023/01/05 08:01:29;;;;;;;17.32;9.35;;;;;;;3.21;99.62;98497.63;1743675;81;21100;-75
2023/01/05 08:03:56;;;;;;;15.32;10.60;;;;;;;3.21;99.62;98497.63;1743781;81;21068;-76
2023/01/05 08:06:22;;;;;;;16.93;11.50;;;;;;;3.27;98.94;98490.95;1758929;80;21078;-72
2023/01/05 08:08:49;;;;;;;20.12;11.53;;;;;;;3.30;98.49;98486.23;1752182;80;21006;-75
2023/01/05 08:11:17;;;;;;;18.57;13.48;;;;;;;3.32;98.08;98485.59;1756362;80;22220;-76
2023/01/05 08:13:59;;;;;;;12.65;8.43;;;;;;;3.39;98.01;98491.03;1779371;80;21058;-77
2023/01/05 08:16:27;;;;;;;15.45;9.00;;;;;;;3.39;97.81;98517.78;1770246;80;21032;-76
2023/01/05 08:18:53;;;;;;;14.25;10.60;;;;;;;3.44;97.53;98447.25;1767133;80;21023;-76
2023/01/05 08:21:20;;;;;;;14.43;10.35;;;;;;;3.49;97.69;98444.98;1766043;80;20988;-75
2023/01/05 08:23:46;;;;;;;13.48;9.98;;;;;;;3.51;97.52;98485.05;1753204;81;21158;-74
2023/01/05 08:26:18;;;;;;;13.18;10.78;;;;;;;3.52;97.48;98465.70;1746300;80;21086;-74
2023/01/05 08:28:45;;;;;;;13.98;10.75;;;;;;;3.53;97.01;98453.73;1754950;81;21092;-76
2023/01/05 08:31:18;;;;;;;14.53;9.90;;;;;;;3.57;96.74;98452.91;1737012;81;20980;-76
2023/01/05 08:33:45;;;;;;;11.73;8.83;;;;;;;3.60;96.23;98444.73;1724235;81;21086;-74
2023/01/05 08:36:18;;;;;;;12.50;9.65;;;;;;;3.72;95.77;98436.91;1729333;81;21136;-74
2023/01/05 08:38:49;;;;;;;11.68;8.93;;;;;;;3.72;95.77;98436.91;1749370;81;21057;-73
2023/01/05 08:41:19;;;;;;;14.40;10.20;;;;;;;3.74;94.48;98436.77;1730762;81;21073;-74
2023/01/05 08:43:52;;;;;;;14.05;9.33;;;;;;;3.79;94.38;98432.38;1735602;81;21538;-75
2023/01/05 08:46:22;;;;;;;13.88;9.35;;;;;;;3.82;94.40;98432.04;1734487;80;21033;-76
2023/01/05 08:48:55;;;;;;;12.80;9.88;;;;;;;3.88;94.71;98419.58;1749631;81;20997;-75
2023/01/05 08:51:22;;;;;;;12.33;8.93;;;;;;;3.90;94.11;98425.03;1741318;81;21157;-73
2023/01/05 08:53:50;;;;;;;11.97;9.23;;;;;;;3.89;93.68;98424.69;1742044;79;21105;-75
2023/01/05 08:56:17;;;;;;;11.80;9.43;;;;;;;3.92;93.68;98406.45;1744869;81;21045;-73
2023/01/05 08:58:46;;;;;;;12.65;9.20;;;;;;;3.92;93.68;98406.45;1748296;81;21104;-74
2023/01/05 09:01:15;;;;;;;12.70;8.68;;;;;;;4.00;94.13;98397.31;1737450;80;21116;-74
2023/01/05 09:03:44;;;;;;;10.75;8.25;;;;;;;4.02;93.29;98396.66;1733619;81;21015;-74
2023/01/05 09:06:11;;;;;;;12.35;9.80;;;;;;;4.04;92.81;98376.30;1732196;81;21019;-77
2023/01/05 09:08:40;;;;;;;14.03;9.68;;;;;;;4.04;92.81;98376.30;1762468;80;21046;-77
2023/01/05 09:11:19;;;;;;;12.88;10.25;;;;;;;4.08;93.14;98393.89;1751505;80;21581;-75
2023/01/05 09:13:47;;;;;;;14.55;9.73;;;;;;;4.14;92.98;98386.67;1769105;80;21126;-75
2023/01/05 09:16:16;;;;;;;13.22;9.30;;;;;;;4.14;92.98;98386.67;1780741;80;21016;-75
2023/01/05 09:18:42;;;;;;;15.70;10.38;;;;;;;4.21;93.21;98378.95;1782537;80;21071;-74
2023/01/05 09:21:09;;;;;;;14.70;9.45;;;;;;;4.23;92.76;98361.22;1781433;80;21571;-73
2023/01/05 09:23:36;;;;;;;14.43;9.90;;;;;;;4.27;92.66;98369.14;1764841;80;21054;-74
2023/01/05 09:26:06;;;;;;;12.85;9.08;;;;;;;4.31;92.59;98347.61;1780151;80;21780;-74
2023/01/05 09:28:35;;;;;;;12.30;8.75;;;;;;;4.34;92.47;98359.09;1756042;80;21041;-74
2023/01/05 09:31:11;;;;;;;14.18;9.48;;;;;;;4.42;92.56;98344.32;1741374;81;21058;-73
2023/01/05 09:33:39;;;;;;;11.68;8.43;;;;;;;4.44;91.82;98348.45;1765820;80;21032;-76
2023/01/05 09:36:07;;;;;;;13.08;9.25;;;;;;;4.48;91.71;98348.92;1752152;81;21478;-74
2023/01/05 09:38:35;;;;;;;11.68;8.85;;;;;;;4.53;92.04;98351.40;1750580;81;21042;-75
2023/01/05 09:41:21;;;;;;;11.93;8.53;;;;;;;4.55;91.72;98330.20;1740924;81;21540;-74
2023/01/05 09:43:51;;;;;;;11.22;9.03;;;;;;;4.62;92.05;98334.33;1751178;81;21482;-76
2023/01/05 09:46:22;;;;;;;11.70;7.58;;;;;;;4.64;91.85;98325.27;1739597;81;21098;-76
2023/01/05 09:48:54;;;;;;;11.53;8.73;;;;;;;4.65;91.95;98353.20;1729406;82;21065;-75
2023/01/05 09:51:21;;;;;;;9.38;7.47;;;;;;;4.68;92.06;98333.16;1717337;82;21186;-75
2023/01/05 09:53:47;;;;;;;12.07;9.18;;;;;;;4.71;92.47;98314.43;1751262;81;21501;-71
2023/01/05 09:56:36;;;;;;;11.35;8.30;;;;;;;4.70;92.81;98314.09;1740431;81;21030;-72
2023/01/05 09:59:09;;;;;;;12.98;8.58;;;;;;;4.71;92.69;98308.33;1739037;81;21076;-73
2023/01/05 10:01:36;;;;;;;12.73;8.98;;;;;;;4.76;93.04;98304.71;1741911;81;22354;-75
2023/01/05 10:04:18;;;;;;;14.07;9.38;;;;;;;4.73;93.11;98297.14;1756861;81;21583;-73
2023/01/05 10:06:48;;;;;;;13.00;8.88;;;;;;;4.75;93.21;98296.48;1733821;81;21662;-73
2023/01/05 10:09:32;;;;;;;12.10;8.43;;;;;;;4.77;93.52;98292.38;1767682;80;21067;-72
2023/01/05 10:15:09;;;;;;;10.27;8.60;;;;;;;4.78;93.97;98286.95;1741944;81;21066;-74
2023/01/05 10:17:43;;;;;;;11.33;8.58;;;;;;;4.80;94.18;98282.84;1771978;81;21157;-74
2023/01/05 10:20:32;;;;;;;9.98;7.03;;;;;;;4.87;94.44;98273.30;1767283;81;20990;-74
2023/01/05 10:23:11;;;;;;;10.72;7.60;;;;;;;4.85;94.51;98280.55;1741453;82;21044;-75
2023/01/05 10:25:46;;;;;;;10.82;8.38;;;;;;;4.92;94.79;98261.28;1740572;81;21540;-74
2023/01/05 10:28:31;;;;;;;9.90;8.20;;;;;;;4.93;94.95;98268.17;1739447;81;21211;-75
2023/01/05 10:31:02;;;;;;;11.53;8.65;;;;;;;5.00;95.08;98255.15;1763233;81;21105;-73
2023/01/05 10:33:54;;;;;;;10.65;8.28;;;;;;;5.01;95.09;98260.75;1741087;81;21005;-74
2023/01/05 10:37:05;;;;;;;11.90;8.50;;;;;;;5.08;95.21;98247.25;1756160;81;21065;-76
2023/01/05 10:39:57;;;;;;;8.98;6.67;;;;;;;5.05;95.15;98239.68;1757759;81;21052;-74
2023/01/05 10:42:50;;;;;;;8.38;6.35;;;;;;;5.06;95.29;98254.50;1759371;81;21008;-73
2023/01/05 10:45:18;;;;;;;8.53;6.10;;;;;;;5.11;95.23;98272.41;1746164;81;21238;-74
2023/01/05 10:47:44;;;;;;;9.23;6.65;;;;;;;5.13;95.22;98242.78;1731989;80;21535;-73
2023/01/05 10:50:34;;;;;;;8.03;5.80;;;;;;;5.17;95.23;98248.03;1754543;79;20919;-72
2023/01/05 10:53:10;;;;;;;8.60;5.55;;;;;;;5.17;95.09;98248.03;1749380;81;21021;-73
2023/01/05 10:55:44;;;;;;;7.97;6.10;;;;;;;5.20;94.97;98252.97;1747485;81;21089;-73
2023/01/05 10:58:30;;;;;;;7.60;5.45;;;;;;;5.25;94.97;98226.95;1765953;81;21013;-75
2023/01/05 11:01:27;;;;;;;10.18;6.22;;;;;;;5.28;95.07;98225.28;1762771;81;21010;-76
2023/01/05 11:04:13;;;;;;;7.70;5.90;;;;;;;5.32;94.89;98219.99;1768502;81;20985;-75
2023/01/05 11:06:41;;;;;;;7.25;5.72;;;;;;;5.37;94.80;98220.81;1760334;81;21024;-76
2023/01/05 11:09:22;;;;;;;9.45;6.47;;;;;;;5.38;94.65;98215.85;1740993;81;21548;-77
2023/01/05 11:11:55;;;;;;;8.30;5.62;;;;;;;5.45;94.78;98214.69;1742002;81;21023;-77
2023/01/05 11:14:21;;;;;;;7.65;5.72;;;;;;;5.46;94.65;98217.63;1755518;81;21591;-79
2023/01/05 11:16:56;;;;;;;9.65;6.15;;;;;;;5.47;94.75;98214.83;1755279;79;21024;-75
2023/01/05 11:19:28;;;;;;;7.22;5.53;;;;;;;5.52;94.61;98223.52;1739050;81;20989;-79
2023/01/05 11:21:55;;;;;;;10.43;5.85;;;;;;;5.56;94.52;98209.00;1762530;81;21045;-77
2023/01/05 11:24:31;;;;;;;6.95;5.33;;;;;;;5.62;94.43;98204.38;1760813;81;21128;-79
2023/01/05 11:27:22;;;;;;;11.40;5.67;;;;;;;5.67;94.28;98198.06;1754872;81;21014;-78
2023/01/05 11:30:18;;;;;;;6.72;5.35;;;;;;;5.68;94.16;98206.31;1757257;81;21043;-77
2023/01/05 11:32:45;;;;;;;7.42;4.92;;;;;;;5.73;94.08;98206.28;1757755;81;20966;-75
2023/01/05 11:35:28;;;;;;;7.58;5.17;;;;;;;5.76;94.09;98198.04;1775228;79;21004;-79
2023/01/05 11:37:56;;;;;;;5.50;4.70;;;;;;;5.79;94.05;98189.77;1752539;81;21485;-80
2023/01/05 11:40:28;;;;;;;7.08;4.30;;;;;;;5.79;93.75;98199.80;1760039;81;21045;-79
2023/01/05 11:42:54;;;;;;;7.22;5.28;;;;;;;5.81;93.74;98193.05;1749082;81;21558;-79
2023/01/05 11:45:27;;;;;;;6.42;4.40;;;;;;;5.83;93.71;98185.30;1753807;81;21503;-79
2023/01/05 11:47:59;;;;;;;4.70;3.57;;;;;;;5.84;93.70;98188.25;1743210;81;21041;-80
2023/01/05 11:50:32;;;;;;;6.72;3.95;;;;;;;5.87;93.62;98184.43;1749087;80;21137;-80
2023/01/05 11:53:01;;;;;;;4.78;3.80;;;;;;;5.87;93.59;98187.06;1744402;81;20966;-78
2023/01/05 11:55:38;;;;;;;8.33;5.10;;;;;;;5.92;93.45;98188.69;1752087;78;20986;-79
2023/01/05 11:58:24;;;;;;;5.95;4.65;;;;;;;5.95;93.49;98174.32;1760956;80;21064;-81
2023/01/05 12:01:25;;;;;;;5.85;3.70;;;;;;;5.97;93.38;98177.16;1778169;80;21021;-79
2023/01/05 12:04:23;;;;;;;5.28;4.08;;;;;;;5.96;93.57;98176.81;1778191;80;21071;-79
2023/01/05 12:07:09;;;;;;;7.60;4.70;;;;;;;6.07;93.32;98171.64;1732070;82;21005;-80
2023/01/05 12:09:38;;;;;;;6.83;4.92;;;;;;;6.05;92.99;98171.81;1757068;80;21118;-79
2023/01/05 12:12:45;;;;;;;6.78;4.78;;;;;;;6.05;93.09;98181.03;1764779;80;21059;-79
2023/01/05 12:15:35;;;;;;;6.45;4.20;;;;;;;6.08;92.72;98163.56;1732465;82;21557;-78
2023/01/05 12:18:31;;;;;;;7.15;4.75;;;;;;;6.12;92.42;98153.95;1747467;82;21460;-81
2023/01/05 12:21:16;;;;;;;4.35;3.62;;;;;;;6.15;92.47;98158.88;1761962;81;21760;-79
2023/01/05 12:24:25;;;;;;;7.17;4.22;;;;;;;6.15;92.43;98161.52;1781286;79;20893;-78
2023/01/05 12:26:59;;;;;;;5.50;4.17;;;;;;;6.16;92.42;98147.32;1764345;79;20995;-79
2023/01/05 12:30:05;;;;;;;5.85;4.33;;;;;;;6.15;92.46;98139.11;1724101;83;21011;-80
2023/01/05 12:32:52;;;;;;;4.45;3.83;;;;;;;6.17;92.58;98152.93;1763586;81;21134;-78